createdAt,value
2023-03-29T00:02:42.197Z,53.11
2023-03-29T00:08:04.581Z,53.41
2023-03-29T00:13:27.244Z,53.68
2023-03-29T00:18:49.327Z,54.01
2023-03-29T00:24:11.167Z,54.34
2023-03-29T00:29:33.084Z,54.15
2023-03-29T00:34:57.041Z,54.50
2023-03-29T00:40:19.453Z,54.58
2023-03-29T00:45:41.180Z,54.65
2023-03-29T00:51:09.901Z,54.85
2023-03-29T00:56:34.995Z,54.99
2023-03-29T01:02:05.427Z,54.97
2023-03-29T01:07:35.484Z,55.34
2023-03-29T01:13:02.620Z,55.83
2023-03-29T01:18:24.559Z,56.44
2023-03-29T01:24:07.575Z,56.50
2023-03-29T01:29:47.350Z,57.25
2023-03-29T01:35:19.834Z,57.51
2023-03-29T01:40:42.654Z,57.50
2023-03-29T01:46:05.939Z,57.65
2023-03-29T01:52:01.693Z,57.81
2023-03-29T01:57:25.253Z,57.79
2023-03-29T02:02:47.936Z,58.46
2023-03-29T02:08:12.561Z,58.61
2023-03-29T02:13:35.588Z,59.23
2023-03-29T02:18:58.119Z,59.14
2023-03-29T02:24:22.186Z,59.53
2023-03-29T02:29:46.996Z,59.82
2023-03-29T02:35:20.869Z,59.89
2023-03-29T02:40:43.006Z,60.22
2023-03-29T02:46:06.473Z,60.42
2023-03-29T02:51:32.140Z,60.54
2023-03-29T02:56:59.969Z,60.95
2023-03-29T03:02:22.070Z,61.10
2023-03-29T03:07:44.091Z,61.20
2023-03-29T03:13:06.126Z,61.52
2023-03-29T03:18:30.687Z,62.08
2023-03-29T03:23:52.231Z,61.67
2023-03-29T03:29:15.700Z,61.27
2023-03-29T03:34:59.083Z,61.43
2023-03-29T03:40:21.243Z,61.60
2023-03-29T03:45:44.008Z,61.65
2023-03-29T03:51:12.320Z,62.21
2023-03-29T03:56:34.972Z,62.63
2023-03-29T04:02:05.265Z,62.53
2023-03-29T04:07:27.751Z,62.90
2023-03-29T04:13:17.257Z,63.02
2023-03-29T04:18:59.019Z,62.86
2023-03-29T04:24:23.507Z,62.83
2023-03-29T04:30:02.313Z,62.83
2023-03-29T04:35:47.164Z,62.76
2023-03-29T04:41:10.152Z,62.80
2023-03-29T04:46:40.333Z,62.64
2023-03-29T04:52:34.457Z,62.69
2023-03-29T04:57:57.283Z,63.08
2023-03-29T05:03:39.684Z,62.63
2023-03-29T05:09:11.149Z,63.19
2023-03-29T05:14:41.503Z,63.37
2023-03-29T05:20:11.376Z,63.07
2023-03-29T05:25:33.817Z,63.29
2023-03-29T05:31:01.091Z,63.36
2023-03-29T05:36:24.985Z,63.14
2023-03-29T05:41:47.004Z,62.81
2023-03-29T05:47:41.789Z,62.53
2023-03-29T05:53:03.978Z,61.48
2023-03-29T05:58:26.865Z,60.67
2023-03-29T06:03:49.462Z,60.76
2023-03-29T06:09:12.983Z,60.40
2023-03-29T06:14:41.531Z,60.26
2023-03-29T06:20:29.356Z,60.19
2023-03-29T06:25:55.550Z,60.01
2023-03-29T06:31:17.797Z,59.56
2023-03-29T06:36:40.257Z,59.23
2023-03-29T06:42:10.050Z,58.61
2023-03-29T06:47:58.877Z,58.43
2023-03-29T06:53:22.127Z,57.93
2023-03-29T06:58:50.039Z,57.76
2023-03-29T07:04:27.244Z,56.56
2023-03-29T07:10:13.121Z,55.75
2023-03-29T07:15:53.937Z,54.84
2023-03-29T07:21:36.683Z,55.04
2023-03-29T07:27:04.453Z,54.16
2023-03-29T07:32:31.243Z,52.78
2023-03-29T07:38:08.400Z,51.31
2023-03-29T07:43:31.236Z,51.02
2023-03-29T07:48:53.393Z,50.96
2023-03-29T07:54:15.093Z,50.02
2023-03-29T07:59:48.752Z,49.64
2023-03-29T08:05:23.264Z,50.49
2023-03-29T08:10:53.585Z,49.35
2023-03-29T08:16:38.445Z,49.05
2023-03-29T08:22:03.974Z,48.39
2023-03-29T08:27:40.340Z,48.14
2023-03-29T08:33:02.968Z,47.72
2023-03-29T08:38:25.284Z,46.75
2023-03-29T08:43:59.568Z,46.79
2023-03-29T08:49:38.252Z,46.45
2023-03-29T08:55:03.065Z,46.32
2023-03-29T09:00:51.315Z,45.50
2023-03-29T09:06:14.543Z,45.12
2023-03-29T09:11:56.737Z,44.38
2023-03-29T09:17:25.075Z,42.96
2023-03-29T09:23:22.541Z,42.52
2023-03-29T09:29:37.387Z,42.11
2023-03-29T09:35:08.527Z,41.51
2023-03-29T09:40:38.033Z,40.74
2023-03-29T09:46:16.195Z,39.90
2023-03-29T09:51:38.997Z,38.81
2023-03-29T09:57:01.247Z,38.43
2023-03-29T10:02:24.626Z,39.10
2023-03-29T10:07:54.455Z,39.57
2023-03-29T10:13:30.656Z,37.38
2023-03-29T10:18:54.834Z,36.32
2023-03-29T10:24:25.598Z,36.15
2023-03-29T10:29:47.636Z,35.34
2023-03-29T10:35:17.996Z,35.30
2023-03-29T10:40:45.336Z,35.06
2023-03-29T10:46:13.485Z,34.05
2023-03-29T10:51:36.223Z,34.35
2023-03-29T10:56:59.469Z,34.65
2023-03-29T11:02:42.001Z,34.62
2023-03-29T11:08:42.515Z,34.48
2023-03-29T11:14:28.252Z,34.70
2023-03-29T11:20:13.137Z,34.99
2023-03-29T11:25:48.410Z,35.02
2023-03-29T11:31:16.988Z,35.21
2023-03-29T11:36:53.951Z,35.20
2023-03-29T11:42:25.185Z,35.54
2023-03-29T11:47:47.592Z,35.54
2023-03-29T11:53:15.139Z,36.14
2023-03-29T11:58:39.830Z,36.33
2023-03-29T12:04:10.806Z,36.94
2023-03-29T12:09:41.581Z,37.19
2023-03-29T12:15:13.918Z,36.43
2023-03-29T12:20:40.033Z,36.67
2023-03-29T12:26:13.932Z,36.22
2023-03-29T12:32:10.192Z,36.09
2023-03-29T12:38:02.723Z,36.31
2023-03-29T12:43:53.311Z,36.53
2023-03-29T12:49:34.656Z,36.12
2023-03-29T12:54:59.327Z,35.64
2023-03-29T13:00:26.552Z,35.22
2023-03-29T13:06:02.832Z,34.96
2023-03-29T13:11:43.008Z,35.12
2023-03-29T13:17:18.493Z,35.46
2023-03-29T13:22:49.946Z,35.26
2023-03-29T13:28:21.024Z,35.51
2023-03-29T13:33:52.701Z,34.99
2023-03-29T13:39:22.722Z,35.41
2023-03-29T13:44:46.330Z,35.20
2023-03-29T13:50:16.890Z,35.62
2023-03-29T13:55:46.667Z,34.93
2023-03-29T14:01:28.411Z,34.68
2023-03-29T14:06:53.291Z,34.76
2023-03-29T14:12:15.861Z,34.68
2023-03-29T14:17:39.439Z,33.92
2023-03-29T14:23:01.229Z,34.67
2023-03-29T14:28:24.180Z,34.88
2023-03-29T14:33:46.173Z,35.39
2023-03-29T14:39:19.348Z,35.39
2023-03-29T14:44:40.873Z,35.39
2023-03-29T14:50:04.032Z,35.56
2023-03-29T14:55:27.494Z,35.47
2023-03-29T15:00:51.076Z,35.62
2023-03-29T15:06:13.405Z,35.89
2023-03-29T15:11:36.011Z,35.76
2023-03-29T15:17:03.303Z,35.43
2023-03-29T15:22:31.900Z,35.96
2023-03-29T15:27:57.549Z,36.22
2023-03-29T15:33:23.101Z,35.00
2023-03-29T15:38:49.474Z,35.36
2023-03-29T15:44:13.117Z,35.80
2023-03-29T15:49:34.732Z,35.76
2023-03-29T15:54:56.762Z,36.16
2023-03-29T16:00:19.995Z,36.89
2023-03-29T16:05:43.231Z,37.15
2023-03-29T16:11:06.951Z,37.27
2023-03-29T16:16:29.330Z,37.95
2023-03-29T16:21:51.623Z,37.80
2023-03-29T16:27:13.754Z,37.45
2023-03-29T16:32:36.038Z,37.57
2023-03-29T16:37:58.318Z,38.03
2023-03-29T16:43:20.142Z,38.55
2023-03-29T16:48:42.375Z,38.63
2023-03-29T16:54:04.423Z,38.96
2023-03-29T16:59:27.120Z,38.95
2023-03-29T17:04:49.263Z,38.58
2023-03-29T17:10:12.602Z,38.66
2023-03-29T17:15:36.706Z,38.73
2023-03-29T17:21:01.773Z,39.27
2023-03-29T17:26:23.704Z,39.50
2023-03-29T17:31:48.675Z,39.91
2023-03-29T17:37:10.879Z,40.20
2023-03-29T17:42:32.908Z,40.64
2023-03-29T17:47:55.873Z,40.71
2023-03-29T17:53:17.564Z,40.82
2023-03-29T17:58:42.727Z,41.16
2023-03-29T18:04:05.243Z,41.20
2023-03-29T18:09:30.587Z,41.35
2023-03-29T18:14:52.613Z,41.79
2023-03-29T18:20:14.636Z,42.10
2023-03-29T18:25:36.773Z,42.10
2023-03-29T18:30:58.687Z,42.47
2023-03-29T18:36:20.910Z,42.57
2023-03-29T18:41:43.117Z,42.78
2023-03-29T18:47:05.682Z,42.97
2023-03-29T18:52:27.876Z,43.03
2023-03-29T18:57:54.197Z,43.34
2023-03-29T19:03:16.028Z,43.47
2023-03-29T19:08:39.850Z,43.61
2023-03-29T19:14:02.472Z,44.05
2023-03-29T19:19:26.406Z,43.93
2023-03-29T19:24:48.139Z,44.46
2023-03-29T19:30:10.384Z,44.36
2023-03-29T19:35:32.404Z,45.12
2023-03-29T19:40:54.312Z,45.69
2023-03-29T19:46:16.057Z,46.03
2023-03-29T19:51:38.181Z,45.90
2023-03-29T19:57:00.170Z,46.37
2023-03-29T20:02:22.239Z,46.51
2023-03-29T20:07:44.765Z,46.47
2023-03-29T20:13:06.845Z,46.79
2023-03-29T20:18:30.936Z,47.20
2023-03-29T20:23:52.561Z,47.49
2023-03-29T20:29:15.601Z,47.97
2023-03-29T20:34:37.328Z,48.44
2023-03-29T20:40:01.063Z,48.17
2023-03-29T20:45:23.492Z,48.55
2023-03-29T20:50:47.429Z,48.80
2023-03-29T20:56:09.543Z,49.17
2023-03-29T21:01:35.074Z,49.14
2023-03-29T21:06:57.336Z,49.05
2023-03-29T21:12:20.342Z,49.19
2023-03-29T21:17:42.346Z,49.46
2023-03-29T21:23:04.628Z,49.97
2023-03-29T21:28:26.627Z,50.42
2023-03-29T21:33:48.188Z,50.65
2023-03-29T21:39:09.713Z,50.56
2023-03-29T21:44:33.789Z,50.72
2023-03-29T21:49:56.174Z,50.99
2023-03-29T21:55:18.194Z,51.01
2023-03-29T22:00:40.092Z,51.31
2023-03-29T22:06:04.484Z,51.40
2023-03-29T22:11:28.699Z,51.43
2023-03-29T22:16:50.292Z,51.83
2023-03-29T22:22:14.308Z,52.00
2023-03-29T22:27:36.907Z,52.01
2023-03-29T22:32:58.620Z,52.19
2023-03-29T22:38:20.847Z,52.70
2023-03-29T22:43:42.603Z,52.83
2023-03-29T22:49:04.412Z,53.19
2023-03-29T22:54:26.155Z,53.17
2023-03-29T22:59:47.987Z,53.27
2023-03-29T23:05:10.022Z,53.40
2023-03-29T23:10:31.846Z,53.70
2023-03-29T23:15:57.409Z,53.84
2023-03-29T23:21:19.013Z,54.51
2023-03-29T23:26:40.839Z,54.58
2023-03-29T23:32:02.261Z,54.71
2023-03-29T23:37:25.100Z,55.28
2023-03-29T23:42:48.207Z,55.65
2023-03-29T23:48:10.061Z,56.07
2023-03-29T23:53:32.298Z,56.35
2023-03-29T23:58:54.426Z,56.09
